createdAt,value
2017-12-28T00:00:20.167Z,44.45
2017-12-28T00:02:47.622Z,44.44
2017-12-28T00:05:15.479Z,44.46
2017-12-28T00:07:42.918Z,44.47
2017-12-28T00:10:10.371Z,44.44
2017-12-28T00:12:37.841Z,44.52
2017-12-28T00:15:05.293Z,44.50
2017-12-28T00:17:32.776Z,44.46
2017-12-28T00:20:00.227Z,44.48
2017-12-28T00:22:28.019Z,44.49
2017-12-28T00:24:55.462Z,44.46
2017-12-28T00:27:22.910Z,44.42
2017-12-28T00:29:50.374Z,44.49
2017-12-28T00:32:17.818Z,44.51
2017-12-28T00:34:45.287Z,44.48
2017-12-28T00:37:12.911Z,44.48
2017-12-28T00:39:40.741Z,44.50
2017-12-28T00:42:08.204Z,44.53
2017-12-28T00:44:35.660Z,44.45
2017-12-28T00:47:02.958Z,44.46
2017-12-28T00:49:30.223Z,44.46
2017-12-28T00:51:57.702Z,44.47
2017-12-28T00:54:25.171Z,44.51
2017-12-28T00:56:52.652Z,44.44
2017-12-28T00:59:20.095Z,44.51
2017-12-28T01:01:47.571Z,44.47
2017-12-28T01:04:15.037Z,44.49
2017-12-28T01:06:42.516Z,44.51
2017-12-28T01:09:09.959Z,44.48
2017-12-28T01:11:37.419Z,44.53
2017-12-28T01:14:04.890Z,44.56
2017-12-28T01:16:32.339Z,44.53
2017-12-28T01:18:59.904Z,44.56
2017-12-28T01:21:27.358Z,44.57
2017-12-28T01:23:54.807Z,44.56
2017-12-28T01:26:22.281Z,44.49
2017-12-28T01:28:49.854Z,44.55
2017-12-28T01:31:17.672Z,44.52
2017-12-28T01:33:45.152Z,44.58
2017-12-28T01:36:12.590Z,44.57
2017-12-28T01:38:40.070Z,44.61
2017-12-28T01:41:07.527Z,44.52
2017-12-28T01:43:35.262Z,44.59
2017-12-28T01:46:02.723Z,44.58
2017-12-28T01:48:30.166Z,44.56
2017-12-28T01:50:57.647Z,44.47
2017-12-28T01:53:25.091Z,44.56
2017-12-28T01:55:52.773Z,44.56
2017-12-28T01:58:20.325Z,44.55
2017-12-28T02:00:47.732Z,44.56
2017-12-28T02:03:15.206Z,44.58
2017-12-28T02:05:42.763Z,44.54
2017-12-28T02:08:10.246Z,44.63
2017-12-28T02:10:37.695Z,44.60
2017-12-28T02:13:05.198Z,44.52
2017-12-28T02:15:32.845Z,44.60
2017-12-28T02:18:00.342Z,44.58
2017-12-28T02:20:27.795Z,44.62
2017-12-28T02:22:55.244Z,44.62
2017-12-28T02:25:22.707Z,44.66
2017-12-28T02:27:50.162Z,44.59
2017-12-28T02:30:17.631Z,44.60
2017-12-28T02:32:45.279Z,44.67
2017-12-28T02:35:12.862Z,44.68
2017-12-28T02:37:40.319Z,44.66
2017-12-28T02:40:07.766Z,44.67
2017-12-28T02:42:35.252Z,44.65
2017-12-28T02:45:02.709Z,44.60
2017-12-28T02:47:30.178Z,44.59
2017-12-28T02:49:57.627Z,44.63
2017-12-28T02:52:25.106Z,44.66
2017-12-28T02:54:52.554Z,44.64
2017-12-28T02:57:20.030Z,44.69
2017-12-28T02:59:47.474Z,44.71
2017-12-28T03:02:14.963Z,44.70
2017-12-28T03:04:42.434Z,44.67
2017-12-28T03:07:09.891Z,44.68
2017-12-28T03:09:37.378Z,44.62
2017-12-28T03:12:05.198Z,44.66
2017-12-28T03:14:32.648Z,44.64
2017-12-28T03:17:00.095Z,44.71
2017-12-28T03:19:27.567Z,44.64
2017-12-28T03:21:55.017Z,44.71
2017-12-28T03:24:22.490Z,44.70
2017-12-28T03:26:49.939Z,44.72
2017-12-28T03:29:17.408Z,44.71
2017-12-28T03:31:44.846Z,44.70
2017-12-28T03:34:12.316Z,44.74
2017-12-28T03:36:39.586Z,44.79
2017-12-28T03:39:07.732Z,44.59
2017-12-28T03:41:35.194Z,44.67
2017-12-28T03:44:02.658Z,44.80
2017-12-28T03:46:30.111Z,44.79
2017-12-28T03:48:57.573Z,44.77
2017-12-28T03:51:25.028Z,44.79
2017-12-28T03:56:37.063Z,44.70
2017-12-28T03:59:04.510Z,44.70
2017-12-28T04:01:31.998Z,44.73
2017-12-28T04:03:59.639Z,44.76
2017-12-28T04:06:27.238Z,44.76
2017-12-28T04:08:54.682Z,44.66
2017-12-28T04:11:22.128Z,44.72
2017-12-28T04:13:49.610Z,44.73
2017-12-28T04:16:17.067Z,44.83
2017-12-28T04:18:44.543Z,44.79
2017-12-28T04:21:12.201Z,44.81
2017-12-28T04:23:39.855Z,44.75
2017-12-28T04:26:07.311Z,44.82
2017-12-28T04:28:34.746Z,44.74
2017-12-28T04:31:02.224Z,44.81
2017-12-28T04:33:29.678Z,44.73
2017-12-28T04:35:57.326Z,44.76
2017-12-28T04:38:24.779Z,44.81
2017-12-28T04:40:52.254Z,44.67
2017-12-28T04:43:19.743Z,44.76
2017-12-28T04:45:47.229Z,44.72
2017-12-28T04:48:14.869Z,44.87
2017-12-28T04:50:42.497Z,44.85
2017-12-28T04:53:09.782Z,44.86
2017-12-28T04:55:37.262Z,44.79
2017-12-28T04:58:04.727Z,44.76
2017-12-28T05:00:32.374Z,44.77
2017-12-28T05:03:00.035Z,44.76
2017-12-28T05:05:27.481Z,44.79
2017-12-28T05:07:54.931Z,44.77
2017-12-28T05:10:22.404Z,44.72
2017-12-28T05:12:49.870Z,44.67
2017-12-28T05:15:17.343Z,44.64
2017-12-28T05:17:44.824Z,44.67
2017-12-28T05:20:12.271Z,44.72
2017-12-28T05:22:39.720Z,44.70
2017-12-28T05:25:07.186Z,44.65
2017-12-28T05:27:34.667Z,44.63
2017-12-28T05:30:02.110Z,44.55
2017-12-28T05:32:29.754Z,44.50
2017-12-28T05:34:57.233Z,44.47
2017-12-28T05:37:24.675Z,44.46
2017-12-28T05:39:52.150Z,44.43
2017-12-28T05:42:19.605Z,44.50
2017-12-28T05:44:47.063Z,44.49
2017-12-28T05:47:14.539Z,44.48
2017-12-28T05:49:41.986Z,44.45
2017-12-28T05:52:09.442Z,44.44
2017-12-28T05:54:36.923Z,44.47
2017-12-28T05:57:04.370Z,44.46
2017-12-28T05:59:31.846Z,44.49
2017-12-28T06:01:59.296Z,44.50
2017-12-28T06:04:26.770Z,44.54
2017-12-28T06:06:54.246Z,44.43
2017-12-28T06:09:21.711Z,44.44
2017-12-28T06:11:49.159Z,44.49
2017-12-28T06:14:16.635Z,44.47
2017-12-28T06:16:44.119Z,44.48
2017-12-28T06:19:11.567Z,44.43
2017-12-28T06:21:38.855Z,44.44
2017-12-28T06:24:06.127Z,44.51
2017-12-28T06:26:33.414Z,44.45
2017-12-28T06:29:01.063Z,44.51
2017-12-28T06:31:28.535Z,44.50
2017-12-28T06:33:55.974Z,44.48
2017-12-28T06:36:23.426Z,44.46
2017-12-28T06:38:50.903Z,44.49
2017-12-28T06:41:18.343Z,44.45
2017-12-28T06:43:45.823Z,44.44
2017-12-28T06:46:13.274Z,44.45
2017-12-28T06:48:40.743Z,44.44
2017-12-28T06:51:08.227Z,44.38
2017-12-28T06:53:35.667Z,44.39
2017-12-28T06:56:03.598Z,44.42
2017-12-28T06:58:31.248Z,44.42
2017-12-28T07:00:58.694Z,44.42
2017-12-28T07:03:26.164Z,44.42
2017-12-28T07:05:53.810Z,44.41
2017-12-28T07:08:21.506Z,44.41
2017-12-28T07:10:48.950Z,44.39
2017-12-28T07:13:16.400Z,44.37
2017-12-28T07:15:43.868Z,44.41
2017-12-28T07:18:11.315Z,44.37
2017-12-28T07:20:38.789Z,44.42
2017-12-28T07:23:06.243Z,44.35
2017-12-28T07:25:33.734Z,44.32
2017-12-28T07:28:01.359Z,44.34
2017-12-28T07:30:28.658Z,44.36
2017-12-28T07:32:56.115Z,44.34
2017-12-28T07:35:23.551Z,44.27
2017-12-28T07:37:51.174Z,44.32
2017-12-28T07:40:18.618Z,44.30
2017-12-28T07:42:46.070Z,44.31
2017-12-28T07:45:13.564Z,44.29
2017-12-28T07:47:41.016Z,44.28
2017-12-28T07:50:08.495Z,44.25
2017-12-28T07:52:35.918Z,44.29
2017-12-28T07:55:03.379Z,44.32
2017-12-28T07:57:30.855Z,44.31
2017-12-28T07:59:58.101Z,44.32
2017-12-28T08:02:25.575Z,44.26
2017-12-28T08:04:53.031Z,44.30
2017-12-28T08:07:20.506Z,44.31
2017-12-28T08:09:47.987Z,44.27
2017-12-28T08:12:15.472Z,44.26
2017-12-28T08:14:42.931Z,44.29
2017-12-28T08:17:10.378Z,44.20
2017-12-28T08:19:38.142Z,44.21
2017-12-28T08:22:05.602Z,44.21
2017-12-28T08:24:33.058Z,44.22
2017-12-28T08:27:00.544Z,44.20
2017-12-28T08:29:27.799Z,44.19
2017-12-28T08:31:55.255Z,44.23
2017-12-28T08:34:22.895Z,44.20
2017-12-28T08:36:50.407Z,44.18
2017-12-28T08:39:17.869Z,44.17
2017-12-28T08:41:45.547Z,44.13
2017-12-28T08:44:13.039Z,44.15
2017-12-28T08:46:40.525Z,44.17
2017-12-28T08:49:08.447Z,44.14
2017-12-28T08:51:36.181Z,44.13
2017-12-28T08:54:03.628Z,44.12
2017-12-28T08:56:31.082Z,44.13
2017-12-28T08:58:58.561Z,44.10
2017-12-28T09:01:26.207Z,44.08
2017-12-28T09:03:53.682Z,44.28
2017-12-28T09:06:21.141Z,43.71
2017-12-28T09:08:48.622Z,43.86
2017-12-28T09:11:16.077Z,44.05
2017-12-28T09:13:43.567Z,44.02
2017-12-28T09:16:11.015Z,43.93
2017-12-28T09:18:38.467Z,43.87
2017-12-28T09:21:05.955Z,43.85
2017-12-28T09:23:33.578Z,43.75
2017-12-28T09:26:01.028Z,43.83
2017-12-28T09:28:28.491Z,43.79
2017-12-28T09:30:55.967Z,43.73
2017-12-28T09:33:23.422Z,43.70
2017-12-28T09:35:50.714Z,43.71
2017-12-28T09:38:18.166Z,42.46
2017-12-28T09:40:45.611Z,41.52
2017-12-28T09:43:13.095Z,41.11
2017-12-28T09:45:40.546Z,40.41
2017-12-28T09:48:07.991Z,40.04
2017-12-28T09:50:35.466Z,40.18
2017-12-28T09:53:02.960Z,39.88
2017-12-28T09:55:30.423Z,39.59
2017-12-28T09:57:57.918Z,39.23
2017-12-28T10:00:25.367Z,40.06
2017-12-28T10:02:52.863Z,39.50
2017-12-28T10:05:20.465Z,39.91
2017-12-28T10:07:48.122Z,40.31
2017-12-28T10:10:15.649Z,40.25
2017-12-28T10:12:43.078Z,40.25
2017-12-28T10:15:10.602Z,40.49
2017-12-28T10:17:38.149Z,40.66
2017-12-28T10:20:05.588Z,40.79
2017-12-28T10:22:33.031Z,40.91
2017-12-28T10:25:00.711Z,41.07
2017-12-28T10:27:28.163Z,41.35
2017-12-28T10:29:55.644Z,41.50
2017-12-28T10:32:23.099Z,41.54
2017-12-28T10:34:50.568Z,41.67
2017-12-28T10:37:18.238Z,41.92
2017-12-28T10:39:45.719Z,41.93
2017-12-28T10:42:13.185Z,42.03
2017-12-28T10:44:40.639Z,42.31
2017-12-28T10:47:08.119Z,42.52
2017-12-28T10:49:35.576Z,41.98
2017-12-28T10:52:03.060Z,42.11
2017-12-28T10:54:30.531Z,41.96
2017-12-28T10:56:58.178Z,42.70
2017-12-28T10:59:25.642Z,42.65
2017-12-28T11:01:53.106Z,42.59
2017-12-28T11:04:20.563Z,42.70
2017-12-28T11:06:48.037Z,42.70
2017-12-28T11:09:15.491Z,42.73
2017-12-28T11:11:43.010Z,42.78
2017-12-28T11:14:10.288Z,42.73
2017-12-28T11:16:37.738Z,42.81
2017-12-28T11:19:05.392Z,42.99
2017-12-28T11:21:32.849Z,42.91
2017-12-28T11:24:00.293Z,42.91
2017-12-28T11:26:27.771Z,43.15
2017-12-28T11:28:55.250Z,43.09
2017-12-28T11:31:22.743Z,43.26
2017-12-28T11:33:50.201Z,43.17
2017-12-28T11:36:17.681Z,43.24
2017-12-28T11:38:45.346Z,43.07
2017-12-28T11:41:12.829Z,43.17
2017-12-28T11:43:40.313Z,43.38
2017-12-28T11:46:07.767Z,43.26
2017-12-28T11:48:35.051Z,42.82
2017-12-28T11:51:02.344Z,43.17
2017-12-28T11:53:29.602Z,43.06
2017-12-28T11:56:02.446Z,43.09
2017-12-28T11:58:30.538Z,42.96
2017-12-28T12:00:57.863Z,42.87
2017-12-28T12:03:30.626Z,42.93
2017-12-28T12:05:58.541Z,42.91
2017-12-28T12:08:35.731Z,42.86
2017-12-28T12:11:03.184Z,42.84
2017-12-28T12:13:30.668Z,42.82
2017-12-28T12:15:58.123Z,42.93
2017-12-28T12:18:25.759Z,42.96
2017-12-28T12:20:53.503Z,42.90
2017-12-28T12:23:20.963Z,42.84
2017-12-28T12:25:48.420Z,42.96
2017-12-28T12:28:15.894Z,43.01
2017-12-28T12:30:43.746Z,43.07
2017-12-28T12:33:11.215Z,43.06
2017-12-28T12:35:38.646Z,43.01
2017-12-28T12:38:06.118Z,43.04
2017-12-28T12:40:33.587Z,43.05
2017-12-28T12:43:01.071Z,43.10
2017-12-28T12:45:28.548Z,43.09
2017-12-28T12:47:56.005Z,43.05
2017-12-28T12:50:23.489Z,43.06
2017-12-28T12:52:50.943Z,43.06
2017-12-28T12:55:18.398Z,43.04
2017-12-28T12:57:45.887Z,43.08
2017-12-28T13:00:14.491Z,43.09
2017-12-28T13:02:42.183Z,42.91
2017-12-28T13:05:09.662Z,42.79
2017-12-28T13:07:37.143Z,42.90
2017-12-28T13:10:04.598Z,42.71
2017-12-28T13:12:32.047Z,42.38
2017-12-28T13:15:00.548Z,42.38
2017-12-28T13:17:28.003Z,42.50
2017-12-28T13:19:55.470Z,42.63
2017-12-28T13:22:22.944Z,42.46
2017-12-28T13:24:50.595Z,42.55
2017-12-28T13:27:18.076Z,42.57
2017-12-28T13:29:45.543Z,42.63
2017-12-28T13:32:12.999Z,42.62
2017-12-28T13:34:40.738Z,42.64
2017-12-28T13:37:08.187Z,42.64
2017-12-28T13:39:35.882Z,42.70
2017-12-28T13:42:03.367Z,42.82
2017-12-28T13:44:30.815Z,42.85
2017-12-28T13:46:58.288Z,42.89
2017-12-28T13:49:25.756Z,42.96
2017-12-28T14:05:03.743Z,41.34
2017-12-28T14:07:30.517Z,41.65
2017-12-28T14:30:34.162Z,41.17
2017-12-28T14:35:29.227Z,41.20
2017-12-28T14:40:48.112Z,40.65
2017-12-28T14:43:15.100Z,40.84
2017-12-28T14:46:10.755Z,43.66
2017-12-28T14:48:37.907Z,43.54
2017-12-28T14:51:05.152Z,43.37
2017-12-28T14:53:32.103Z,43.14
2017-12-28T14:55:59.044Z,43.01
2017-12-28T14:58:26.423Z,42.93
2017-12-28T15:00:53.455Z,43.16
2017-12-28T15:03:20.482Z,43.26
2017-12-28T15:05:47.584Z,43.27
2017-12-28T15:08:14.520Z,43.52
2017-12-28T15:10:41.671Z,43.23
2017-12-28T15:13:08.636Z,43.03
2017-12-28T15:15:35.582Z,42.96
2017-12-28T15:18:02.766Z,42.90
2017-12-28T15:20:29.724Z,42.94
2017-12-28T15:22:56.696Z,42.77
2017-12-28T15:25:23.944Z,42.69
2017-12-28T15:27:50.928Z,42.68
2017-12-28T15:30:17.876Z,42.65
2017-12-28T15:32:44.826Z,42.58
2017-12-28T15:35:11.987Z,42.60
2017-12-28T15:37:38.931Z,42.54
2017-12-28T15:40:05.895Z,42.60
2017-12-28T15:42:32.861Z,42.64
2017-12-28T15:44:59.932Z,42.68
2017-12-28T15:47:26.927Z,42.67
2017-12-28T15:49:53.853Z,42.67
2017-12-28T15:52:20.832Z,42.63
2017-12-28T15:54:47.863Z,42.63
2017-12-28T15:57:14.840Z,42.61
2017-12-28T15:59:41.829Z,42.62
2017-12-28T16:02:08.832Z,42.58
2017-12-28T16:04:36.423Z,42.58
2017-12-28T16:07:03.367Z,42.55
2017-12-28T16:09:30.334Z,42.53
2017-12-28T16:11:57.096Z,42.51
2017-12-28T16:14:24.068Z,42.50
2017-12-28T16:16:51.010Z,42.51
2017-12-28T16:19:18.166Z,42.47
2017-12-28T16:21:45.145Z,42.47
2017-12-28T16:24:12.292Z,42.44
2017-12-28T16:26:39.269Z,42.44
2017-12-28T16:29:06.220Z,42.43
2017-12-28T16:31:33.173Z,42.41
2017-12-28T16:34:00.348Z,42.40
2017-12-28T16:36:27.291Z,42.39
2017-12-28T16:38:54.476Z,42.36
2017-12-28T16:41:21.423Z,42.39
2017-12-28T16:43:48.368Z,42.18
2017-12-28T16:46:15.341Z,42.27
2017-12-28T16:48:42.307Z,42.35
2017-12-28T16:51:10.488Z,42.38
2017-12-28T16:53:37.465Z,42.46
2017-12-28T16:56:04.429Z,42.58
2017-12-28T16:58:31.387Z,42.62
2017-12-28T17:00:58.338Z,42.63
2017-12-28T17:05:10.867Z,41.28
2017-12-28T17:07:37.839Z,41.16
2017-12-28T17:10:05.102Z,40.73
2017-12-28T17:12:32.347Z,40.77
2017-12-28T17:14:59.365Z,40.46
2017-12-28T17:17:26.550Z,40.58
2017-12-28T17:19:53.846Z,40.70
2017-12-28T17:22:21.012Z,40.55
2017-12-28T17:24:48.366Z,40.60
2017-12-28T17:53:38.535Z,41.32
2017-12-28T18:17:07.443Z,41.60
2017-12-28T18:21:28.772Z,41.55
2017-12-28T18:23:55.808Z,41.43
2017-12-28T18:26:22.795Z,41.59
2017-12-28T18:28:50.095Z,42.18
2017-12-28T18:31:17.086Z,42.10
2017-12-28T18:33:44.073Z,42.23
2017-12-28T18:36:11.163Z,42.27
2017-12-28T18:38:38.420Z,42.22
2017-12-28T18:41:05.441Z,41.79
2017-12-28T18:43:33.119Z,41.89
2017-12-28T18:45:59.986Z,41.76
2017-12-28T18:48:26.910Z,41.75
2017-12-28T18:50:55.056Z,41.87
2017-12-28T18:53:21.935Z,42.06
2017-12-28T18:55:48.832Z,42.09
2017-12-28T18:58:16.055Z,42.12
2017-12-28T19:00:43.018Z,42.25
2017-12-28T19:03:10.364Z,42.15
2017-12-28T19:05:37.383Z,42.13
2017-12-28T19:08:04.303Z,42.19
2017-12-28T19:10:31.270Z,42.23
2017-12-28T19:12:58.174Z,42.01
2017-12-28T19:15:25.079Z,42.15
2017-12-28T19:17:51.978Z,42.16
2017-12-28T19:20:18.852Z,42.26
2017-12-28T19:22:45.743Z,42.34
2017-12-28T19:25:12.627Z,42.40
2017-12-28T19:27:39.554Z,42.43
2017-12-28T19:30:06.428Z,42.54
2017-12-28T19:32:33.294Z,42.55
2017-12-28T19:35:00.226Z,42.69
2017-12-28T19:37:27.176Z,42.75
2017-12-28T19:39:54.070Z,42.70
2017-12-28T19:42:20.954Z,42.74
2017-12-28T19:44:48.158Z,42.73
2017-12-28T19:48:36.099Z,42.00
2017-12-28T19:51:03.098Z,41.95
2017-12-28T19:55:04.279Z,41.99
2017-12-28T20:00:27.795Z,43.09
2017-12-28T20:02:53.791Z,42.69
2017-12-28T20:05:19.772Z,42.86
2017-12-28T20:07:45.740Z,42.75
2017-12-28T20:10:11.646Z,42.61
2017-12-28T20:12:37.570Z,42.32
2017-12-28T20:15:03.596Z,42.38
2017-12-28T20:17:29.514Z,42.00
2017-12-28T20:19:55.461Z,42.36
2017-12-28T20:22:21.480Z,43.72
2017-12-28T20:24:47.615Z,44.05
2017-12-28T20:27:13.536Z,44.50
2017-12-28T20:29:39.460Z,43.60
2017-12-28T20:32:05.454Z,43.68
2017-12-28T20:34:31.388Z,43.71
2017-12-28T20:39:28.112Z,43.73
2017-12-28T20:41:54.031Z,43.75
2017-12-28T20:44:20.011Z,43.82
2017-12-28T20:57:11.996Z,41.53
2017-12-28T20:59:37.950Z,41.26
2017-12-28T21:02:03.877Z,41.43
2017-12-28T21:11:22.153Z,41.22
2017-12-28T21:13:47.715Z,41.36
2017-12-28T21:16:13.246Z,41.38
2017-12-28T21:18:38.816Z,41.51
2017-12-28T21:21:04.344Z,41.63
2017-12-28T21:23:29.865Z,41.80
2017-12-28T21:28:34.790Z,41.84
2017-12-28T21:31:01.626Z,42.07
2017-12-28T21:33:28.481Z,42.02
2017-12-28T21:35:55.363Z,42.38
2017-12-28T21:39:36.454Z,42.97
2017-12-28T21:42:02.344Z,42.98
2017-12-28T21:44:28.312Z,43.64
2017-12-28T21:46:54.427Z,43.40
2017-12-28T21:49:20.411Z,43.73
2017-12-28T21:51:46.745Z,43.82
2017-12-28T21:54:12.772Z,43.48
2017-12-28T21:56:38.809Z,43.34
2017-12-28T21:59:04.823Z,43.79
2017-12-28T22:01:30.768Z,43.73
2017-12-28T22:03:56.755Z,43.73
2017-12-28T22:06:22.651Z,43.72
2017-12-28T22:08:48.567Z,43.42
2017-12-28T22:11:14.478Z,43.64
2017-12-28T22:13:40.555Z,43.77
2017-12-28T22:16:06.479Z,43.72
2017-12-28T22:18:32.384Z,43.75
2017-12-28T22:20:58.283Z,43.83
2017-12-28T22:23:24.194Z,43.24
2017-12-28T22:25:50.090Z,43.73
2017-12-28T22:28:16.083Z,43.26
2017-12-28T22:30:41.977Z,43.78
2017-12-28T22:33:07.909Z,43.71
2017-12-28T22:35:33.815Z,43.81
2017-12-28T22:37:59.699Z,43.48
2017-12-28T22:40:25.627Z,43.44
2017-12-28T22:42:51.546Z,43.23
2017-12-28T22:45:17.422Z,43.73
2017-12-28T22:47:43.329Z,43.58
2017-12-28T22:50:09.259Z,43.32
2017-12-28T22:52:35.143Z,43.73
2017-12-28T22:55:01.071Z,43.74
2017-12-28T22:57:26.971Z,43.33
2017-12-28T22:59:52.858Z,43.15
2017-12-28T23:02:19.331Z,43.77
2017-12-28T23:04:45.247Z,43.42
2017-12-28T23:07:11.163Z,43.45
2017-12-28T23:09:37.059Z,43.13
2017-12-28T23:12:03.010Z,43.84
2017-12-28T23:14:28.903Z,43.55
2017-12-28T23:16:54.816Z,43.67
2017-12-28T23:19:20.734Z,43.32
2017-12-28T23:21:46.624Z,43.77
2017-12-28T23:24:12.543Z,43.76
2017-12-28T23:26:38.663Z,43.71
2017-12-28T23:29:04.563Z,43.19
2017-12-28T23:31:30.459Z,43.70
2017-12-28T23:33:56.374Z,43.29
2017-12-28T23:36:22.269Z,43.90
2017-12-28T23:38:48.399Z,43.41
2017-12-28T23:41:14.292Z,43.63
2017-12-28T23:43:41.371Z,43.53
2017-12-28T23:46:07.306Z,43.45
2017-12-28T23:48:33.232Z,43.64
2017-12-28T23:50:59.126Z,43.36
2017-12-28T23:53:25.602Z,43.38
2017-12-28T23:55:51.512Z,43.50
2017-12-28T23:58:17.431Z,43.85
